sensor_id;sensor_type;location;lat;lon;timestamp;temperature;humidity
65989;HTU21D;53592;51.402;6.054;2022-11-14T00:01:31;6.78;75.73
65989;HTU21D;53592;51.402;6.054;2022-11-14T00:03:57;6.79;75.63
65989;HTU21D;53592;51.402;6.054;2022-11-14T00:06:22;6.79;75.63
65989;HTU21D;53592;51.402;6.054;2022-11-14T00:08:47;6.78;75.59
65989;HTU21D;53592;51.402;6.054;2022-11-14T00:11:13;6.75;75.59
65989;HTU21D;53592;51.402;6.054;2022-11-14T00:13:38;6.78;75.53
65989;HTU21D;53592;51.402;6.054;2022-11-14T00:16:04;6.80;75.48
65989;HTU21D;53592;51.402;6.054;2022-11-14T00:18:29;6.83;75.37
65989;HTU21D;53592;51.402;6.054;2022-11-14T00:20:55;6.85;75.17
65989;HTU21D;53592;51.402;6.054;2022-11-14T00:23:21;6.86;74.90
65989;HTU21D;53592;51.402;6.054;2022-11-14T00:25:47;6.82;74.97
65989;HTU21D;53592;51.402;6.054;2022-11-14T00:28:13;6.80;75.02
65989;HTU21D;53592;51.402;6.054;2022-11-14T00:30:38;6.79;74.80
65989;HTU21D;53592;51.402;6.054;2022-11-14T00:33:04;6.75;74.86
65989;HTU21D;53592;51.402;6.054;2022-11-14T00:35:30;6.67;75.07
65989;HTU21D;53592;51.402;6.054;2022-11-14T00:37:55;6.58;75.38
65989;HTU21D;53592;51.402;6.054;2022-11-14T00:40:20;6.53;75.70
65989;HTU21D;53592;51.402;6.054;2022-11-14T00:42:46;6.50;75.93
65989;HTU21D;53592;51.402;6.054;2022-11-14T00:45:11;6.46;76.15
65989;HTU21D;53592;51.402;6.054;2022-11-14T00:47:37;6.49;76.18
65989;HTU21D;53592;51.402;6.054;2022-11-14T00:50:03;6.51;76.01
65989;HTU21D;53592;51.402;6.054;2022-11-14T00:52:29;6.53;75.98
65989;HTU21D;53592;51.402;6.054;2022-11-14T00:54:54;6.55;75.75
65989;HTU21D;53592;51.402;6.054;2022-11-14T00:57:19;6.50;75.68
65989;HTU21D;53592;51.402;6.054;2022-11-14T00:59:45;6.40;75.95
65989;HTU21D;53592;51.402;6.054;2022-11-14T01:02:10;6.34;76.53
65989;HTU21D;53592;51.402;6.054;2022-11-14T01:04:36;6.36;76.51
65989;HTU21D;53592;51.402;6.054;2022-11-14T01:07:01;6.39;76.41
65989;HTU21D;53592;51.402;6.054;2022-11-14T01:09:27;6.40;76.42
65989;HTU21D;53592;51.402;6.054;2022-11-14T01:11:52;6.36;76.63
65989;HTU21D;53592;51.402;6.054;2022-11-14T01:14:18;6.30;77.19
65989;HTU21D;53592;51.402;6.054;2022-11-14T01:16:43;6.28;77.47
65989;HTU21D;53592;51.402;6.054;2022-11-14T01:19:09;6.27;77.45
65989;HTU21D;53592;51.402;6.054;2022-11-14T01:21:35;6.24;78.05
65989;HTU21D;53592;51.402;6.054;2022-11-14T01:24:00;6.20;78.06
65989;HTU21D;53592;51.402;6.054;2022-11-14T01:26:26;6.21;78.03
65989;HTU21D;53592;51.402;6.054;2022-11-14T01:28:53;6.22;78.00
65989;HTU21D;53592;51.402;6.054;2022-11-14T01:31:21;6.24;77.86
65989;HTU21D;53592;51.402;6.054;2022-11-14T01:33:48;6.19;78.25
65989;HTU21D;53592;51.402;6.054;2022-11-14T01:36:14;6.20;78.24
65989;HTU21D;53592;51.402;6.054;2022-11-14T01:38:40;6.25;78.04
65989;HTU21D;53592;51.402;6.054;2022-11-14T01:41:06;6.27;77.81
65989;HTU21D;53592;51.402;6.054;2022-11-14T01:43:34;6.30;77.61
65989;HTU21D;53592;51.402;6.054;2022-11-14T01:46:08;6.30;77.47
65989;HTU21D;53592;51.402;6.054;2022-11-14T01:49:05;6.28;77.39
65989;HTU21D;53592;51.402;6.054;2022-11-14T01:51:43;6.24;77.31
65989;HTU21D;53592;51.402;6.054;2022-11-14T01:54:28;6.17;77.39
65989;HTU21D;53592;51.402;6.054;2022-11-14T01:56:58;6.13;77.50
65989;HTU21D;53592;51.402;6.054;2022-11-14T01:59:32;6.11;77.45
65989;HTU21D;53592;51.402;6.054;2022-11-14T02:02:04;6.12;77.31
65989;HTU21D;53592;51.402;6.054;2022-11-14T02:04:37;6.02;77.46
65989;HTU21D;53592;51.402;6.054;2022-11-14T02:07:04;5.91;77.96
65989;HTU21D;53592;51.402;6.054;2022-11-14T02:09:35;5.86;78.47
65989;HTU21D;53592;51.402;6.054;2022-11-14T02:12:05;5.91;78.56
65989;HTU21D;53592;51.402;6.054;2022-11-14T02:14:33;5.96;78.56
65989;HTU21D;53592;51.402;6.054;2022-11-14T02:16:59;6.01;78.42
65989;HTU21D;53592;51.402;6.054;2022-11-14T02:19:25;6.07;78.34
65989;HTU21D;53592;51.402;6.054;2022-11-14T02:22:03;6.08;78.28
65989;HTU21D;53592;51.402;6.054;2022-11-14T02:24:29;6.09;78.08
65989;HTU21D;53592;51.402;6.054;2022-11-14T02:26:54;6.11;78.08
65989;HTU21D;53592;51.402;6.054;2022-11-14T02:29:20;6.12;78.50
65989;HTU21D;53592;51.402;6.054;2022-11-14T02:31:45;6.10;78.82
65989;HTU21D;53592;51.402;6.054;2022-11-14T02:34:11;6.07;79.08
65989;HTU21D;53592;51.402;6.054;2022-11-14T02:36:36;6.04;79.24
65989;HTU21D;53592;51.402;6.054;2022-11-14T02:39:02;6.06;79.21
65989;HTU21D;53592;51.402;6.054;2022-11-14T02:41:27;6.09;79.11
65989;HTU21D;53592;51.402;6.054;2022-11-14T02:43:53;6.11;78.83
65989;HTU21D;53592;51.402;6.054;2022-11-14T02:46:18;6.11;78.45
65989;HTU21D;53592;51.402;6.054;2022-11-14T02:48:43;6.13;78.08
65989;HTU21D;53592;51.402;6.054;2022-11-14T02:51:09;6.16;77.86
65989;HTU21D;53592;51.402;6.054;2022-11-14T02:53:34;6.20;77.54
65989;HTU21D;53592;51.402;6.054;2022-11-14T02:56:00;6.20;77.37
65989;HTU21D;53592;51.402;6.054;2022-11-14T02:58:25;6.21;77.27
65989;HTU21D;53592;51.402;6.054;2022-11-14T03:00:51;6.21;77.08
65989;HTU21D;53592;51.402;6.054;2022-11-14T03:03:16;6.24;76.76
65989;HTU21D;53592;51.402;6.054;2022-11-14T03:05:41;6.20;76.37
65989;HTU21D;53592;51.402;6.054;2022-11-14T03:08:07;6.11;76.26
65989;HTU21D;53592;51.402;6.054;2022-11-14T03:10:32;5.97;76.50
65989;HTU21D;53592;51.402;6.054;2022-11-14T03:12:58;5.90;76.99
65989;HTU21D;53592;51.402;6.054;2022-11-14T03:15:24;5.91;76.89
65989;HTU21D;53592;51.402;6.054;2022-11-14T03:17:49;5.86;76.94
65989;HTU21D;53592;51.402;6.054;2022-11-14T03:20:16;5.87;76.79
65989;HTU21D;53592;51.402;6.054;2022-11-14T03:22:41;5.84;76.64
65989;HTU21D;53592;51.402;6.054;2022-11-14T03:25:07;5.82;76.76
65989;HTU21D;53592;51.402;6.054;2022-11-14T03:27:33;5.82;76.82
65989;HTU21D;53592;51.402;6.054;2022-11-14T03:29:58;5.81;76.60
65989;HTU21D;53592;51.402;6.054;2022-11-14T03:32:24;5.79;76.61
65989;HTU21D;53592;51.402;6.054;2022-11-14T03:34:49;5.79;76.59
65989;HTU21D;53592;51.402;6.054;2022-11-14T03:37:15;5.78;76.47
65989;HTU21D;53592;51.402;6.054;2022-11-14T03:39:40;5.75;76.60
65989;HTU21D;53592;51.402;6.054;2022-11-14T03:42:06;5.69;76.51
65989;HTU21D;53592;51.402;6.054;2022-11-14T03:44:31;5.63;76.47
65989;HTU21D;53592;51.402;6.054;2022-11-14T03:46:57;5.57;76.53
65989;HTU21D;53592;51.402;6.054;2022-11-14T03:49:22;5.54;76.53
65989;HTU21D;53592;51.402;6.054;2022-11-14T03:51:48;5.48;76.70
65989;HTU21D;53592;51.402;6.054;2022-11-14T03:54:14;5.46;77.05
65989;HTU21D;53592;51.402;6.054;2022-11-14T03:56:40;5.46;77.08
65989;HTU21D;53592;51.402;6.054;2022-11-14T03:59:05;5.47;77.13
65989;HTU21D;53592;51.402;6.054;2022-11-14T04:01:31;5.52;76.80
65989;HTU21D;53592;51.402;6.054;2022-11-14T04:03:56;5.49;76.50
65989;HTU21D;53592;51.402;6.054;2022-11-14T04:06:22;5.48;76.35
65989;HTU21D;53592;51.402;6.054;2022-11-14T04:08:47;5.46;76.44
65989;HTU21D;53592;51.402;6.054;2022-11-14T04:11:13;5.39;76.51
65989;HTU21D;53592;51.402;6.054;2022-11-14T04:13:38;5.31;76.54
65989;HTU21D;53592;51.402;6.054;2022-11-14T04:16:04;5.24;76.77
65989;HTU21D;53592;51.402;6.054;2022-11-14T04:18:29;5.21;77.02
65989;HTU21D;53592;51.402;6.054;2022-11-14T04:20:55;5.20;77.37
65989;HTU21D;53592;51.402;6.054;2022-11-14T04:23:20;5.21;77.62
65989;HTU21D;53592;51.402;6.054;2022-11-14T04:25:46;5.27;77.48
65989;HTU21D;53592;51.402;6.054;2022-11-14T04:28:12;5.38;77.10
65989;HTU21D;53592;51.402;6.054;2022-11-14T04:30:38;5.47;76.77
65989;HTU21D;53592;51.402;6.054;2022-11-14T04:33:03;5.52;76.53
65989;HTU21D;53592;51.402;6.054;2022-11-14T04:35:29;5.53;76.28
65989;HTU21D;53592;51.402;6.054;2022-11-14T04:37:54;5.54;76.14
65989;HTU21D;53592;51.402;6.054;2022-11-14T04:40:20;5.55;75.81
65989;HTU21D;53592;51.402;6.054;2022-11-14T04:42:45;5.48;75.67
65989;HTU21D;53592;51.402;6.054;2022-11-14T04:45:12;5.41;75.74
65989;HTU21D;53592;51.402;6.054;2022-11-14T04:47:37;5.39;75.95
65989;HTU21D;53592;51.402;6.054;2022-11-14T04:50:03;5.36;75.79
65989;HTU21D;53592;51.402;6.054;2022-11-14T04:52:28;5.30;75.91
65989;HTU21D;53592;51.402;6.054;2022-11-14T04:54:54;5.27;76.00
65989;HTU21D;53592;51.402;6.054;2022-11-14T04:57:19;5.25;76.01
65989;HTU21D;53592;51.402;6.054;2022-11-14T04:59:45;5.22;76.14
65989;HTU21D;53592;51.402;6.054;2022-11-14T05:02:10;5.24;76.15
65989;HTU21D;53592;51.402;6.054;2022-11-14T05:04:36;5.23;75.75
65989;HTU21D;53592;51.402;6.054;2022-11-14T05:07:02;5.19;75.70
65989;HTU21D;53592;51.402;6.054;2022-11-14T05:09:27;5.17;75.74
65989;HTU21D;53592;51.402;6.054;2022-11-14T05:11:52;5.13;75.82
65989;HTU21D;53592;51.402;6.054;2022-11-14T05:14:18;5.12;75.64
65989;HTU21D;53592;51.402;6.054;2022-11-14T05:16:43;5.09;75.67
65989;HTU21D;53592;51.402;6.054;2022-11-14T05:19:09;5.05;75.89
65989;HTU21D;53592;51.402;6.054;2022-11-14T05:21:34;5.06;75.89
65989;HTU21D;53592;51.402;6.054;2022-11-14T05:24:00;5.06;75.55
65989;HTU21D;53592;51.402;6.054;2022-11-14T05:26:25;5.06;75.44
65989;HTU21D;53592;51.402;6.054;2022-11-14T05:28:51;5.03;75.52
65989;HTU21D;53592;51.402;6.054;2022-11-14T05:31:16;4.96;75.74
65989;HTU21D;53592;51.402;6.054;2022-11-14T05:33:42;4.93;76.04
65989;HTU21D;53592;51.402;6.054;2022-11-14T05:36:11;4.88;76.28
65989;HTU21D;53592;51.402;6.054;2022-11-14T05:38:37;4.80;76.44
65989;HTU21D;53592;51.402;6.054;2022-11-14T05:41:11;4.76;76.65
65989;HTU21D;53592;51.402;6.054;2022-11-14T05:43:36;4.77;76.78
65989;HTU21D;53592;51.402;6.054;2022-11-14T05:46:05;4.76;76.80
65989;HTU21D;53592;51.402;6.054;2022-11-14T05:48:31;4.75;76.84
65989;HTU21D;53592;51.402;6.054;2022-11-14T05:50:58;4.73;76.78
65989;HTU21D;53592;51.402;6.054;2022-11-14T05:53:26;4.72;76.94
65989;HTU21D;53592;51.402;6.054;2022-11-14T05:55:52;4.69;77.15
65989;HTU21D;53592;51.402;6.054;2022-11-14T05:58:18;4.73;77.12
65989;HTU21D;53592;51.402;6.054;2022-11-14T06:00:44;4.75;77.05
65989;HTU21D;53592;51.402;6.054;2022-11-14T06:03:09;4.78;76.95
65989;HTU21D;53592;51.402;6.054;2022-11-14T06:05:35;4.80;76.76
65989;HTU21D;53592;51.402;6.054;2022-11-14T06:08:01;4.78;76.82
65989;HTU21D;53592;51.402;6.054;2022-11-14T06:10:27;4.79;77.02
65989;HTU21D;53592;51.402;6.054;2022-11-14T06:12:53;4.80;77.05
65989;HTU21D;53592;51.402;6.054;2022-11-14T06:15:18;4.81;76.96
65989;HTU21D;53592;51.402;6.054;2022-11-14T06:17:44;4.84;76.76
65989;HTU21D;53592;51.402;6.054;2022-11-14T06:20:10;4.81;76.86
65989;HTU21D;53592;51.402;6.054;2022-11-14T06:22:39;4.87;76.79
65989;HTU21D;53592;51.402;6.054;2022-11-14T06:25:04;4.87;76.68
65989;HTU21D;53592;51.402;6.054;2022-11-14T06:27:31;4.88;76.63
65989;HTU21D;53592;51.402;6.054;2022-11-14T06:29:56;4.84;76.71
65989;HTU21D;53592;51.402;6.054;2022-11-14T06:32:22;4.82;76.86
65989;HTU21D;53592;51.402;6.054;2022-11-14T06:34:47;4.84;76.82
65989;HTU21D;53592;51.402;6.054;2022-11-14T06:37:12;4.87;76.75
65989;HTU21D;53592;51.402;6.054;2022-11-14T06:39:38;4.88;76.81
65989;HTU21D;53592;51.402;6.054;2022-11-14T06:42:03;4.89;76.72
65989;HTU21D;53592;51.402;6.054;2022-11-14T06:44:29;4.87;76.79
65989;HTU21D;53592;51.402;6.054;2022-11-14T06:46:54;4.87;76.86
65989;HTU21D;53592;51.402;6.054;2022-11-14T06:49:20;4.89;76.85
65989;HTU21D;53592;51.402;6.054;2022-11-14T06:51:46;4.92;76.79
65989;HTU21D;53592;51.402;6.054;2022-11-14T06:54:12;4.90;76.73
65989;HTU21D;53592;51.402;6.054;2022-11-14T06:56:38;4.92;76.63
65989;HTU21D;53592;51.402;6.054;2022-11-14T06:59:03;4.92;76.57
65989;HTU21D;53592;51.402;6.054;2022-11-14T07:01:29;4.90;76.60
65989;HTU21D;53592;51.402;6.054;2022-11-14T07:03:54;4.86;76.76
65989;HTU21D;53592;51.402;6.054;2022-11-14T07:06:27;4.83;77.10
65989;HTU21D;53592;51.402;6.054;2022-11-14T07:08:54;4.87;77.09
65989;HTU21D;53592;51.402;6.054;2022-11-14T07:11:22;4.89;77.04
65989;HTU21D;53592;51.402;6.054;2022-11-14T07:13:53;4.93;76.98
65989;HTU21D;53592;51.402;6.054;2022-11-14T07:16:19;4.92;76.98
65989;HTU21D;53592;51.402;6.054;2022-11-14T07:18:45;4.91;77.01
65989;HTU21D;53592;51.402;6.054;2022-11-14T07:21:11;4.86;77.24
65989;HTU21D;53592;51.402;6.054;2022-11-14T07:23:40;4.81;77.78
65989;HTU21D;53592;51.402;6.054;2022-11-14T07:26:09;4.79;78.56
65989;HTU21D;53592;51.402;6.054;2022-11-14T07:28:36;4.77;78.85
65989;HTU21D;53592;51.402;6.054;2022-11-14T07:31:03;4.82;78.73
65989;HTU21D;53592;51.402;6.054;2022-11-14T07:33:30;4.84;78.11
65989;HTU21D;53592;51.402;6.054;2022-11-14T07:35:56;4.81;78.07
65989;HTU21D;53592;51.402;6.054;2022-11-14T07:38:21;4.83;78.08
65989;HTU21D;53592;51.402;6.054;2022-11-14T07:43:20;4.86;78.44
65989;HTU21D;53592;51.402;6.054;2022-11-14T07:45:45;4.88;78.60
65989;HTU21D;53592;51.402;6.054;2022-11-14T07:48:10;4.90;78.77
65989;HTU21D;53592;51.402;6.054;2022-11-14T07:50:36;4.93;78.76
65989;HTU21D;53592;51.402;6.054;2022-11-14T07:53:01;4.97;78.78
65989;HTU21D;53592;51.402;6.054;2022-11-14T07:55:27;5.01;78.70
65989;HTU21D;53592;51.402;6.054;2022-11-14T07:57:53;5.07;78.62
65989;HTU21D;53592;51.402;6.054;2022-11-14T08:00:19;5.10;78.84
65989;HTU21D;53592;51.402;6.054;2022-11-14T08:02:46;5.16;79.43
65989;HTU21D;53592;51.402;6.054;2022-11-14T08:05:11;5.20;79.85
65989;HTU21D;53592;51.402;6.054;2022-11-14T08:07:37;5.22;80.01
65989;HTU21D;53592;51.402;6.054;2022-11-14T08:10:03;5.26;80.43
65989;HTU21D;53592;51.402;6.054;2022-11-14T08:12:28;5.32;80.81
65989;HTU21D;53592;51.402;6.054;2022-11-14T08:14:54;5.37;81.23
65989;HTU21D;53592;51.402;6.054;2022-11-14T08:17:20;5.45;81.46
65989;HTU21D;53592;51.402;6.054;2022-11-14T08:19:45;5.48;81.65
65989;HTU21D;53592;51.402;6.054;2022-11-14T08:22:11;5.56;81.84
65989;HTU21D;53592;51.402;6.054;2022-11-14T08:24:36;5.63;82.04
65989;HTU21D;53592;51.402;6.054;2022-11-14T08:27:02;5.74;82.10
65989;HTU21D;53592;51.402;6.054;2022-11-14T08:29:27;5.80;82.12
65989;HTU21D;53592;51.402;6.054;2022-11-14T08:31:53;5.96;82.28
65989;HTU21D;53592;51.402;6.054;2022-11-14T08:34:18;6.02;82.13
65989;HTU21D;53592;51.402;6.054;2022-11-14T08:36:45;6.15;82.22
65989;HTU21D;53592;51.402;6.054;2022-11-14T08:39:10;6.26;82.55
65989;HTU21D;53592;51.402;6.054;2022-11-14T08:41:35;6.44;82.65
65989;HTU21D;53592;51.402;6.054;2022-11-14T08:44:01;6.67;82.39
65989;HTU21D;53592;51.402;6.054;2022-11-14T08:46:27;6.84;81.97
65989;HTU21D;53592;51.402;6.054;2022-11-14T08:48:52;7.09;81.37
65989;HTU21D;53592;51.402;6.054;2022-11-14T08:51:18;7.27;81.01
65989;HTU21D;53592;51.402;6.054;2022-11-14T08:53:43;7.47;80.57
65989;HTU21D;53592;51.402;6.054;2022-11-14T08:56:09;7.74;79.96
65989;HTU21D;53592;51.402;6.054;2022-11-14T08:58:35;7.90;79.60
65989;HTU21D;53592;51.402;6.054;2022-11-14T09:01:02;8.15;78.51
65989;HTU21D;53592;51.402;6.054;2022-11-14T09:03:28;8.20;78.47
65989;HTU21D;53592;51.402;6.054;2022-11-14T09:05:54;8.31;78.34
65989;HTU21D;53592;51.402;6.054;2022-11-14T09:08:21;8.32;78.42
65989;HTU21D;53592;51.402;6.054;2022-11-14T09:10:47;8.52;77.76
65989;HTU21D;53592;51.402;6.054;2022-11-14T09:13:12;8.61;77.64
65989;HTU21D;53592;51.402;6.054;2022-11-14T09:15:38;8.76;77.18
65989;HTU21D;53592;51.402;6.054;2022-11-14T09:18:03;8.73;77.33
65989;HTU21D;53592;51.402;6.054;2022-11-14T09:20:29;8.94;76.66
65989;HTU21D;53592;51.402;6.054;2022-11-14T09:23:00;8.89;76.82
65989;HTU21D;53592;51.402;6.054;2022-11-14T09:25:26;9.08;76.28
65989;HTU21D;53592;51.402;6.054;2022-11-14T09:27:53;9.12;76.06
65989;HTU21D;53592;51.402;6.054;2022-11-14T09:30:18;9.22;75.95
65989;HTU21D;53592;51.402;6.054;2022-11-14T09:32:47;9.22;75.92
65989;HTU21D;53592;51.402;6.054;2022-11-14T09:35:13;9.26;76.10
65989;HTU21D;53592;51.402;6.054;2022-11-14T09:37:39;9.37;75.78
65989;HTU21D;53592;51.402;6.054;2022-11-14T09:40:12;9.40;75.31
65989;HTU21D;53592;51.402;6.054;2022-11-14T09:48:30;9.49;74.96
65989;HTU21D;53592;51.402;6.054;2022-11-14T09:51:17;9.45;75.57
65989;HTU21D;53592;51.402;6.054;2022-11-14T09:56:39;9.54;75.24
65989;HTU21D;53592;51.402;6.054;2022-11-14T09:59:09;9.56;75.18
65989;HTU21D;53592;51.402;6.054;2022-11-14T10:01:38;9.50;74.82
65989;HTU21D;53592;51.402;6.054;2022-11-14T10:04:20;9.44;74.82
65989;HTU21D;53592;51.402;6.054;2022-11-14T10:07:13;9.30;75.89
65989;HTU21D;53592;51.402;6.054;2022-11-14T10:10:15;9.24;76.40
65989;HTU21D;53592;51.402;6.054;2022-11-14T10:15:36;9.29;75.73
65989;HTU21D;53592;51.402;6.054;2022-11-14T10:18:27;9.20;76.02
65989;HTU21D;53592;51.402;6.054;2022-11-14T10:21:20;9.05;76.81
65989;HTU21D;53592;51.402;6.054;2022-11-14T10:26:27;9.00;76.65
65989;HTU21D;53592;51.402;6.054;2022-11-14T10:31:40;8.95;77.87
65989;HTU21D;53592;51.402;6.054;2022-11-14T10:34:33;8.96;77.46
65989;HTU21D;53592;51.402;6.054;2022-11-14T10:37:14;8.91;77.76
65989;HTU21D;53592;51.402;6.054;2022-11-14T10:39:49;8.98;76.83
65989;HTU21D;53592;51.402;6.054;2022-11-14T10:42:36;9.00;77.09
65989;HTU21D;53592;51.402;6.054;2022-11-14T10:45:21;8.93;76.77
65989;HTU21D;53592;51.402;6.054;2022-11-14T10:48:12;8.92;77.21
65989;HTU21D;53592;51.402;6.054;2022-11-14T10:50:55;8.88;77.16
65989;HTU21D;53592;51.402;6.054;2022-11-14T10:53:33;8.94;76.51
65989;HTU21D;53592;51.402;6.054;2022-11-14T10:56:00;8.71;77.72
65989;HTU21D;53592;51.402;6.054;2022-11-14T10:58:26;8.79;77.27
65989;HTU21D;53592;51.402;6.054;2022-11-14T11:00:51;8.66;77.84
65989;HTU21D;53592;51.402;6.054;2022-11-14T11:03:17;8.68;77.79
65989;HTU21D;53592;51.402;6.054;2022-11-14T11:05:49;8.75;77.93
65989;HTU21D;53592;51.402;6.054;2022-11-14T11:08:20;8.79;77.89
65989;HTU21D;53592;51.402;6.054;2022-11-14T11:11:10;8.79;78.03
65989;HTU21D;53592;51.402;6.054;2022-11-14T11:13:56;8.86;77.99
65989;HTU21D;53592;51.402;6.054;2022-11-14T11:16:25;8.88;77.92
65989;HTU21D;53592;51.402;6.054;2022-11-14T11:18:51;8.83;78.15
65989;HTU21D;53592;51.402;6.054;2022-11-14T11:21:19;9.02;77.47
65989;HTU21D;53592;51.402;6.054;2022-11-14T11:23:53;8.92;78.02
65989;HTU21D;53592;51.402;6.054;2022-11-14T11:26:26;9.01;77.72
65989;HTU21D;53592;51.402;6.054;2022-11-14T11:31:54;9.01;77.34
65989;HTU21D;53592;51.402;6.054;2022-11-14T11:34:27;9.00;77.62
65989;HTU21D;53592;51.402;6.054;2022-11-14T11:37:14;9.11;77.18
65989;HTU21D;53592;51.402;6.054;2022-11-14T11:39:50;9.10;76.82
65989;HTU21D;53592;51.402;6.054;2022-11-14T11:42:41;9.15;76.65
65989;HTU21D;53592;51.402;6.054;2022-11-14T11:45:14;9.04;77.31
65989;HTU21D;53592;51.402;6.054;2022-11-14T11:47:49;9.06;77.32
65989;HTU21D;53592;51.402;6.054;2022-11-14T11:50:19;9.17;76.95
65989;HTU21D;53592;51.402;6.054;2022-11-14T11:53:04;9.06;77.16
65989;HTU21D;53592;51.402;6.054;2022-11-14T11:55:41;9.22;76.15
65989;HTU21D;53592;51.402;6.054;2022-11-14T11:58:40;9.16;76.44
65989;HTU21D;53592;51.402;6.054;2022-11-14T12:01:14;9.23;75.85
65989;HTU21D;53592;51.402;6.054;2022-11-14T12:03:47;9.21;76.02
65989;HTU21D;53592;51.402;6.054;2022-11-14T12:06:18;9.29;75.31
65989;HTU21D;53592;51.402;6.054;2022-11-14T12:11:26;9.22;76.45
65989;HTU21D;53592;51.402;6.054;2022-11-14T12:27:55;9.53;75.56
65989;HTU21D;53592;51.402;6.054;2022-11-14T12:30:24;9.65;75.09
65989;HTU21D;53592;51.402;6.054;2022-11-14T12:35:31;9.68;75.01
65989;HTU21D;53592;51.402;6.054;2022-11-14T12:38:01;9.67;75.06
65989;HTU21D;53592;51.402;6.054;2022-11-14T12:40:35;9.81;74.40
65989;HTU21D;53592;51.402;6.054;2022-11-14T12:43:03;9.82;74.00
65989;HTU21D;53592;51.402;6.054;2022-11-14T12:50:51;9.84;74.42
65989;HTU21D;53592;51.402;6.054;2022-11-14T12:59:33;9.85;74.04
65989;HTU21D;53592;51.402;6.054;2022-11-14T13:02:26;9.93;73.77
65989;HTU21D;53592;51.402;6.054;2022-11-14T13:05:33;9.80;74.47
65989;HTU21D;53592;51.402;6.054;2022-11-14T13:10:44;9.83;74.67
65989;HTU21D;53592;51.402;6.054;2022-11-14T13:13:12;9.83;74.54
65989;HTU21D;53592;51.402;6.054;2022-11-14T13:15:59;9.82;73.94
65989;HTU21D;53592;51.402;6.054;2022-11-14T13:19:01;9.90;73.61
65989;HTU21D;53592;51.402;6.054;2022-11-14T13:27:32;9.96;73.05
65989;HTU21D;53592;51.402;6.054;2022-11-14T13:30:00;10.04;73.35
65989;HTU21D;53592;51.402;6.054;2022-11-14T13:32:51;10.05;73.37
65989;HTU21D;53592;51.402;6.054;2022-11-14T13:35:44;10.10;73.21
65989;HTU21D;53592;51.402;6.054;2022-11-14T13:38:33;10.12;72.41
65989;HTU21D;53592;51.402;6.054;2022-11-14T13:50:10;10.16;71.87
65989;HTU21D;53592;51.402;6.054;2022-11-14T13:52:42;10.15;71.95
65989;HTU21D;53592;51.402;6.054;2022-11-14T13:55:21;10.18;71.91
65989;HTU21D;53592;51.402;6.054;2022-11-14T13:58:00;10.20;71.26
65989;HTU21D;53592;51.402;6.054;2022-11-14T14:01:07;10.21;71.25
65989;HTU21D;53592;51.402;6.054;2022-11-14T14:03:54;10.21;70.50
65989;HTU21D;53592;51.402;6.054;2022-11-14T14:14:56;10.19;71.33
65989;HTU21D;53592;51.402;6.054;2022-11-14T14:26:25;10.27;71.20
65989;HTU21D;53592;51.402;6.054;2022-11-14T14:29:10;10.25;71.19
65989;HTU21D;53592;51.402;6.054;2022-11-14T14:31:41;10.25;71.47
65989;HTU21D;53592;51.402;6.054;2022-11-14T14:34:21;10.26;71.59
65989;HTU21D;53592;51.402;6.054;2022-11-14T14:36:53;10.29;71.54
65989;HTU21D;53592;51.402;6.054;2022-11-14T14:39:23;10.27;71.54
65989;HTU21D;53592;51.402;6.054;2022-11-14T14:41:57;10.28;71.46
65989;HTU21D;53592;51.402;6.054;2022-11-14T14:44:26;10.28;71.37
65989;HTU21D;53592;51.402;6.054;2022-11-14T14:46:53;10.29;71.47
65989;HTU21D;53592;51.402;6.054;2022-11-14T14:49:34;10.29;71.63
65989;HTU21D;53592;51.402;6.054;2022-11-14T14:52:00;10.34;71.61
65989;HTU21D;53592;51.402;6.054;2022-11-14T14:54:27;10.33;71.58
65989;HTU21D;53592;51.402;6.054;2022-11-14T14:56:58;10.31;71.54
65989;HTU21D;53592;51.402;6.054;2022-11-14T14:59:29;10.30;71.79
65989;HTU21D;53592;51.402;6.054;2022-11-14T15:01:57;10.31;72.12
65989;HTU21D;53592;51.402;6.054;2022-11-14T15:04:26;10.35;72.03
65989;HTU21D;53592;51.402;6.054;2022-11-14T15:06:53;10.37;71.90
65989;HTU21D;53592;51.402;6.054;2022-11-14T15:09:27;10.39;71.71
65989;HTU21D;53592;51.402;6.054;2022-11-14T15:12:00;10.36;72.09
65989;HTU21D;53592;51.402;6.054;2022-11-14T15:14:29;10.35;72.07
65989;HTU21D;53592;51.402;6.054;2022-11-14T15:16:57;10.37;72.05
65989;HTU21D;53592;51.402;6.054;2022-11-14T15:19:27;10.36;72.30
65989;HTU21D;53592;51.402;6.054;2022-11-14T15:22:01;10.30;72.62
65989;HTU21D;53592;51.402;6.054;2022-11-14T15:24:27;10.28;72.67
65989;HTU21D;53592;51.402;6.054;2022-11-14T15:26:53;10.24;72.74
65989;HTU21D;53592;51.402;6.054;2022-11-14T15:29:24;10.26;72.92
65989;HTU21D;53592;51.402;6.054;2022-11-14T15:32:00;10.24;73.16
65989;HTU21D;53592;51.402;6.054;2022-11-14T15:34:33;10.23;73.22
65989;HTU21D;53592;51.402;6.054;2022-11-14T15:39:36;10.20;73.02
65989;HTU21D;53592;51.402;6.054;2022-11-14T15:42:18;10.16;72.85
65989;HTU21D;53592;51.402;6.054;2022-11-14T15:44:46;10.12;72.92
65989;HTU21D;53592;51.402;6.054;2022-11-14T15:47:29;10.10;73.21
65989;HTU21D;53592;51.402;6.054;2022-11-14T15:52:36;10.06;73.13
65989;HTU21D;53592;51.402;6.054;2022-11-14T15:55:11;10.05;73.40
65989;HTU21D;53592;51.402;6.054;2022-11-14T15:57:37;10.04;73.36
65989;HTU21D;53592;51.402;6.054;2022-11-14T16:00:03;10.03;73.54
65989;HTU21D;53592;51.402;6.054;2022-11-14T16:02:32;10.03;73.65
65989;HTU21D;53592;51.402;6.054;2022-11-14T16:05:00;10.06;73.85
65989;HTU21D;53592;51.402;6.054;2022-11-14T16:07:27;10.08;73.82
65989;HTU21D;53592;51.402;6.054;2022-11-14T16:09:53;10.10;73.70
65989;HTU21D;53592;51.402;6.054;2022-11-14T16:12:19;10.09;73.61
65989;HTU21D;53592;51.402;6.054;2022-11-14T16:14:45;10.08;73.54
65989;HTU21D;53592;51.402;6.054;2022-11-14T16:17:15;10.07;73.52
65989;HTU21D;53592;51.402;6.054;2022-11-14T16:19:41;10.07;73.64
65989;HTU21D;53592;51.402;6.054;2022-11-14T16:22:16;10.05;73.99
65989;HTU21D;53592;51.402;6.054;2022-11-14T16:24:42;10.08;74.02
65989;HTU21D;53592;51.402;6.054;2022-11-14T16:27:08;10.01;73.73
65989;HTU21D;53592;51.402;6.054;2022-11-14T16:29:33;9.97;73.99
65989;HTU21D;53592;51.402;6.054;2022-11-14T16:31:59;9.95;73.99
65989;HTU21D;53592;51.402;6.054;2022-11-14T16:34:25;9.90;74.12
65989;HTU21D;53592;51.402;6.054;2022-11-14T16:36:59;9.92;74.24
65989;HTU21D;53592;51.402;6.054;2022-11-14T16:39:25;9.88;74.60
65989;HTU21D;53592;51.402;6.054;2022-11-14T16:41:51;9.82;74.96
65989;HTU21D;53592;51.402;6.054;2022-11-14T16:44:17;9.79;75.34
65989;HTU21D;53592;51.402;6.054;2022-11-14T16:46:43;9.76;75.54
65989;HTU21D;53592;51.402;6.054;2022-11-14T16:49:16;9.75;75.70
65989;HTU21D;53592;51.402;6.054;2022-11-14T16:51:46;9.76;75.77
65989;HTU21D;53592;51.402;6.054;2022-11-14T16:54:13;9.72;75.89
65989;HTU21D;53592;51.402;6.054;2022-11-14T16:56:38;9.72;76.01
65989;HTU21D;53592;51.402;6.054;2022-11-14T16:59:04;9.72;76.27
65989;HTU21D;53592;51.402;6.054;2022-11-14T17:01:30;9.71;76.47
65989;HTU21D;53592;51.402;6.054;2022-11-14T17:03:56;9.68;76.76
65989;HTU21D;53592;51.402;6.054;2022-11-14T17:06:26;9.68;77.04
65989;HTU21D;53592;51.402;6.054;2022-11-14T17:08:56;9.68;77.21
65989;HTU21D;53592;51.402;6.054;2022-11-14T17:11:23;9.72;77.37
65989;HTU21D;53592;51.402;6.054;2022-11-14T17:13:49;9.74;77.46